Time;durP1;ratioP1;P1;durP2;ratioP2;P2;SDS_P1;SDS_P2;PMS_P1;PMS_P2;Temp;Humidity;BMP_temperature;BMP_pressure;BME280_temperature;BME280_humidity;BME280_pressure;Samples;Min_cycle;Max_cycle;Signal;HPM_P1;HPM_P2
2022/03/10 00:01:29;;;;;;;17.80;11.93;;;;;;;;;;4973004;28;20391;-93
2022/03/10 00:03:56;;;;;;;18.75;12.57;;;;;;;;;;4972905;28;20042;-94
2022/03/10 00:06:22;;;;;;;18.20;12.85;;;;;;;;;;4972944;28;20447;-93
2022/03/10 00:08:48;;;;;;;22.42;13.93;;;;;;;;;;4956791;28;20043;-92
2022/03/10 00:11:14;;;;;;;20.75;13.00;;;;;;;;;;4973235;28;20035;-93
2022/03/10 00:13:40;;;;;;;21.38;12.90;;;;;;;;;;4972926;28;20097;-93
2022/03/10 00:16:06;;;;;;;19.33;13.07;;;;;;;;;;4959461;28;20046;-92
2022/03/10 00:18:32;;;;;;;20.20;12.88;;;;;;;;;;4976852;28;20114;-92
2022/03/10 00:20:58;;;;;;;18.25;11.55;;;;;;;;;;4976615;28;20403;-93
2022/03/10 00:23:24;;;;;;;18.05;13.05;;;;;;;;;;4976965;28;20043;-92
2022/03/10 00:25:50;;;;;;;20.60;13.82;;;;;;;;;;4976768;28;20097;-93
2022/03/10 00:28:18;;;;;;;22.42;13.23;;;;;;;;;;4976840;28;20045;-91
2022/03/10 00:30:44;;;;;;;19.52;12.57;;;;;;;;;;4960368;28;20169;-91
2022/03/10 00:33:10;;;;;;;19.70;12.52;;;;;;;;;;4977132;28;20038;-94
2022/03/10 00:35:36;;;;;;;19.23;12.32;;;;;;;;;;4960699;28;20042;-93
2022/03/10 00:38:01;;;;;;;19.27;12.75;;;;;;;;;;4976380;28;20101;-93
2022/03/10 00:40:28;;;;;;;21.02;13.32;;;;;;;;;;4976383;28;20054;-93
2022/03/10 00:42:55;;;;;;;23.83;12.85;;;;;;;;;;4975902;28;20061;-92
2022/03/10 00:45:21;;;;;;;21.35;12.48;;;;;;;;;;4976289;28;20533;-91
2022/03/10 00:47:47;;;;;;;20.27;13.18;;;;;;;;;;4975957;28;20039;-93
2022/03/10 00:50:13;;;;;;;20.75;12.70;;;;;;;;;;4960014;28;20129;-92
2022/03/10 00:52:43;;;;;;;17.70;11.55;;;;;;;;;;4977124;28;20043;-93
2022/03/10 00:55:09;;;;;;;20.63;12.35;;;;;;;;;;4959943;28;20043;-91
2022/03/10 00:57:35;;;;;;;18.10;11.70;;;;;;;;;;4975682;28;20046;-91
2022/03/10 01:00:01;;;;;;;20.90;12.80;;;;;;;;;;4975843;28;20038;-92
2022/03/10 01:02:30;;;;;;;20.00;11.93;;;;;;;;;;4975822;28;20046;-95
2022/03/10 01:04:56;;;;;;;19.08;12.23;;;;;;;;;;4977451;28;20038;-92
2022/03/10 01:07:22;;;;;;;23.25;12.60;;;;;;;;;;4975614;28;20039;-92
2022/03/10 01:09:48;;;;;;;19.23;12.20;;;;;;;;;;4975797;28;20038;-91
2022/03/10 01:12:14;;;;;;;19.50;11.77;;;;;;;;;;4975981;28;20057;-92
2022/03/10 01:14:40;;;;;;;17.60;11.60;;;;;;;;;;4975696;28;20039;-92
2022/03/10 01:17:06;;;;;;;15.70;11.40;;;;;;;;;;4975405;28;20081;-91
2022/03/10 01:19:32;;;;;;;18.15;11.35;;;;;;;;;;4975738;28;20057;-92
2022/03/10 01:21:58;;;;;;;19.25;11.75;;;;;;;;;;4975486;28;20466;-92
2022/03/10 01:24:25;;;;;;;21.23;12.68;;;;;;;;;;4975774;28;20053;-92
2022/03/10 01:26:51;;;;;;;21.17;10.50;;;;;;;;;;4974921;28;20051;-92
2022/03/10 01:29:17;;;;;;;20.15;11.65;;;;;;;;;;4959282;28;20050;-91
2022/03/10 01:31:43;;;;;;;19.73;12.25;;;;;;;;;;4975305;28;20097;-92
2022/03/10 01:34:09;;;;;;;20.83;12.25;;;;;;;;;;4975881;28;20043;-92
2022/03/10 01:36:35;;;;;;;21.45;12.38;;;;;;;;;;4975000;28;20039;-93
2022/03/10 01:39:04;;;;;;;18.05;11.77;;;;;;;;;;4975196;28;20103;-92
2022/03/10 01:41:33;;;;;;;18.70;11.90;;;;;;;;;;4958875;28;20498;-91
2022/03/10 01:44:00;;;;;;;18.35;11.82;;;;;;;;;;4975048;28;20518;-93
2022/03/10 01:46:26;;;;;;;18.65;12.18;;;;;;;;;;4975240;28;20395;-93
2022/03/10 01:48:53;;;;;;;20.40;12.45;;;;;;;;;;4975333;28;20500;-93
2022/03/10 01:51:19;;;;;;;19.15;12.15;;;;;;;;;;4975332;28;20051;-92
2022/03/10 01:53:45;;;;;;;22.95;12.15;;;;;;;;;;4974848;28;20076;-92
2022/03/10 01:56:11;;;;;;;19.02;11.73;;;;;;;;;;4975032;28;20054;-92
2022/03/10 01:58:37;;;;;;;19.08;10.73;;;;;;;;;;4974847;28;20046;-92
2022/03/10 02:01:03;;;;;;;20.10;11.43;;;;;;;;;;4959238;28;20043;-93
2022/03/10 02:03:29;;;;;;;21.80;12.35;;;;;;;;;;4958595;28;20478;-93
2022/03/10 02:05:55;;;;;;;20.67;12.27;;;;;;;;;;4974848;28;20034;-93
2022/03/10 02:11:06;;;;;;;20.05;12.10;;;;;;;;;;4974810;28;20043;-93
2022/03/10 02:13:32;;;;;;;17.77;11.50;;;;;;;;;;4958783;28;20505;-94
2022/03/10 02:18:43;;;;;;;23.98;12.45;;;;;;;;;;4974370;28;20051;-92
2022/03/10 02:21:09;;;;;;;19.92;12.00;;;;;;;;;;4974593;28;20501;-92
2022/03/10 02:23:35;;;;;;;21.20;11.95;;;;;;;;;;4974282;28;20449;-91
2022/03/10 02:26:01;;;;;;;19.50;12.82;;;;;;;;;;4958431;28;20043;-93
2022/03/10 02:28:27;;;;;;;18.17;11.70;;;;;;;;;;4974353;28;20124;-92
2022/03/10 02:30:54;;;;;;;21.85;12.40;;;;;;;;;;4974386;28;20050;-92
2022/03/10 02:33:20;;;;;;;21.23;12.55;;;;;;;;;;4974186;28;20053;-93
2022/03/10 02:35:46;;;;;;;20.73;12.50;;;;;;;;;;4958571;28;20141;-92
2022/03/10 02:38:18;;;;;;;19.38;11.93;;;;;;;;;;4973628;28;20038;-93
2022/03/10 02:40:44;;;;;;;18.77;11.88;;;;;;;;;;4958321;28;20070;-94
2022/03/10 02:43:10;;;;;;;20.90;12.82;;;;;;;;;;4973799;28;20081;-93
2022/03/10 02:45:36;;;;;;;19.38;12.18;;;;;;;;;;4958181;28;20046;-93
2022/03/10 02:48:02;;;;;;;22.02;12.63;;;;;;;;;;4974010;28;20045;-93
2022/03/10 02:50:29;;;;;;;17.85;11.68;;;;;;;;;;4974344;28;20046;-94
2022/03/10 02:52:55;;;;;;;21.83;12.80;;;;;;;;;;4974262;28;20494;-91
2022/03/10 02:55:21;;;;;;;23.30;12.88;;;;;;;;;;4957916;28;20046;-92
2022/03/10 02:57:48;;;;;;;21.55;13.02;;;;;;;;;;4973647;28;20049;-93
2022/03/10 03:00:14;;;;;;;20.23;11.48;;;;;;;;;;4974253;28;20042;-93
2022/03/10 03:02:40;;;;;;;18.15;11.52;;;;;;;;;;4974241;28;20051;-92
2022/03/10 03:05:07;;;;;;;20.60;12.07;;;;;;;;;;4973913;28;20066;-94
2022/03/10 03:07:34;;;;;;;20.83;12.93;;;;;;;;;;4973895;28;20062;-92
2022/03/10 03:10:00;;;;;;;18.08;11.63;;;;;;;;;;4974055;28;20109;-93
2022/03/10 03:12:26;;;;;;;21.98;13.05;;;;;;;;;;4974336;28;20074;-92
2022/03/10 03:14:52;;;;;;;20.85;12.27;;;;;;;;;;4973617;28;20093;-91
2022/03/10 03:17:18;;;;;;;23.15;12.13;;;;;;;;;;4973425;28;20058;-94
2022/03/10 03:19:45;;;;;;;20.73;12.25;;;;;;;;;;4973833;28;20042;-93
2022/03/10 03:22:11;;;;;;;20.88;12.27;;;;;;;;;;4973590;28;20113;-94
2022/03/10 03:24:37;;;;;;;20.65;12.02;;;;;;;;;;4973579;28;20474;-92
2022/03/10 03:27:04;;;;;;;20.73;12.00;;;;;;;;;;4973658;28;20035;-92
2022/03/10 03:29:30;;;;;;;23.23;11.98;;;;;;;;;;4973372;28;20285;-94
2022/03/10 03:31:56;;;;;;;22.08;11.95;;;;;;;;;;4973825;28;20081;-94
2022/03/10 03:34:22;;;;;;;19.40;12.18;;;;;;;;;;4973829;28;20042;-92
2022/03/10 03:36:48;;;;;;;19.60;12.20;;;;;;;;;;4957487;28;20046;-94
2022/03/10 03:39:14;;;;;;;19.60;11.93;;;;;;;;;;4973557;28;20430;-92
2022/03/10 03:41:41;;;;;;;19.23;11.57;;;;;;;;;;4973712;28;20423;-94
2022/03/10 03:44:07;;;;;;;18.10;11.68;;;;;;;;;;4972935;28;20430;-91
2022/03/10 03:46:33;;;;;;;21.00;12.52;;;;;;;;;;4973577;28;20051;-94
2022/03/10 03:48:59;;;;;;;20.27;12.13;;;;;;;;;;4973211;28;20125;-93
2022/03/10 03:51:25;;;;;;;19.38;11.57;;;;;;;;;;4961003;28;20078;-95
2022/03/10 03:53:51;;;;;;;18.30;11.85;;;;;;;;;;4977368;28;20042;-94
2022/03/10 03:56:18;;;;;;;18.02;11.32;;;;;;;;;;4977318;28;20094;-93
2022/03/10 03:58:44;;;;;;;20.95;12.20;;;;;;;;;;4977400;28;20117;-94
2022/03/10 04:01:10;;;;;;;20.88;12.05;;;;;;;;;;4977516;28;20409;-92
2022/03/10 04:03:36;;;;;;;19.80;12.07;;;;;;;;;;4976859;28;20055;-92
2022/03/10 04:06:02;;;;;;;17.60;11.68;;;;;;;;;;4977009;28;20081;-93
2022/03/10 04:08:28;;;;;;;20.80;12.27;;;;;;;;;;4976942;28;20096;-92
2022/03/10 04:10:54;;;;;;;22.00;12.30;;;;;;;;;;4976950;28;20038;-92
2022/03/10 04:13:24;;;;;;;18.60;11.38;;;;;;;;;;4976693;28;20050;-94
2022/03/10 04:15:51;;;;;;;20.17;12.25;;;;;;;;;;4960908;28;20042;-95
2022/03/10 04:18:17;;;;;;;21.15;12.70;;;;;;;;;;4977116;28;20050;-93
2022/03/10 04:20:43;;;;;;;22.15;12.93;;;;;;;;;;4976795;28;20525;-93
2022/03/10 04:23:10;;;;;;;18.02;11.45;;;;;;;;;;4976526;28;20035;-93
2022/03/10 04:25:36;;;;;;;22.08;12.63;;;;;;;;;;4977436;28;20045;-94
2022/03/10 04:28:02;;;;;;;20.10;12.02;;;;;;;;;;4960512;28;20039;-93
2022/03/10 04:30:29;;;;;;;21.88;12.57;;;;;;;;;;4977183;28;20042;-92
2022/03/10 04:32:55;;;;;;;18.88;12.07;;;;;;;;;;4977124;28;20046;-94
2022/03/10 04:35:21;;;;;;;21.00;12.45;;;;;;;;;;4976611;28;20493;-93
2022/03/10 04:37:51;;;;;;;20.95;11.82;;;;;;;;;;4976618;28;20051;-94
2022/03/10 04:40:18;;;;;;;17.17;11.30;;;;;;;;;;4960264;28;20093;-93
2022/03/10 04:42:44;;;;;;;22.27;12.43;;;;;;;;;;4960215;28;20051;-93
2022/03/10 04:45:10;;;;;;;21.20;12.82;;;;;;;;;;4976232;28;20054;-93
2022/03/10 04:47:36;;;;;;;18.17;12.32;;;;;;;;;;4976432;28;20050;-93
2022/03/10 04:50:03;;;;;;;20.15;12.43;;;;;;;;;;4976169;28;20045;-95
2022/03/10 04:52:29;;;;;;;21.52;12.27;;;;;;;;;;4979924;28;20043;-92
2022/03/10 04:54:56;;;;;;;21.20;12.70;;;;;;;;;;4976044;28;20039;-93
2022/03/10 04:57:22;;;;;;;18.42;12.35;;;;;;;;;;4976266;28;20093;-92
2022/03/10 04:59:48;;;;;;;20.20;12.82;;;;;;;;;;4975989;28;20384;-92
2022/03/10 05:02:14;;;;;;;20.00;12.00;;;;;;;;;;4975545;28;20451;-92
2022/03/10 05:04:40;;;;;;;19.20;12.07;;;;;;;;;;4960023;28;20039;-93
2022/03/10 05:07:06;;;;;;;20.80;12.25;;;;;;;;;;4975934;28;20045;-94
2022/03/10 05:09:32;;;;;;;19.90;11.88;;;;;;;;;;4975952;28;20078;-92
2022/03/10 05:11:58;;;;;;;19.15;13.15;;;;;;;;;;4960095;28;20051;-91
2022/03/10 05:14:24;;;;;;;20.02;11.60;;;;;;;;;;4975718;28;20477;-94
2022/03/10 05:16:51;;;;;;;20.08;12.50;;;;;;;;;;4975793;28;20047;-92
2022/03/10 05:19:17;;;;;;;19.15;12.18;;;;;;;;;;4975760;28;20505;-93
2022/03/10 05:21:43;;;;;;;17.73;10.88;;;;;;;;;;4976250;28;20039;-92
2022/03/10 05:24:09;;;;;;;19.15;11.55;;;;;;;;;;4959333;28;20049;-94
2022/03/10 05:26:37;;;;;;;19.00;11.98;;;;;;;;;;4975804;28;20383;-94
2022/03/10 05:29:03;;;;;;;20.33;11.43;;;;;;;;;;4975399;28;20039;-92
2022/03/10 05:31:29;;;;;;;18.33;11.57;;;;;;;;;;4975440;28;20050;-91
2022/03/10 05:33:55;;;;;;;19.08;12.23;;;;;;;;;;4958997;28;20042;-92
2022/03/10 05:36:21;;;;;;;20.90;11.50;;;;;;;;;;4975241;28;20461;-92
2022/03/10 05:38:47;;;;;;;19.65;11.38;;;;;;;;;;4975074;28;20125;-93
2022/03/10 05:41:13;;;;;;;19.60;11.48;;;;;;;;;;4975217;28;20122;-92
2022/03/10 05:43:39;;;;;;;21.15;12.25;;;;;;;;;;4974976;28;20070;-91
2022/03/10 05:46:05;;;;;;;22.05;13.50;;;;;;;;;;4958971;28;20125;-93
2022/03/10 05:48:31;;;;;;;22.38;12.05;;;;;;;;;;4959201;28;20450;-93
2022/03/10 05:50:58;;;;;;;20.73;11.18;;;;;;;;;;4975132;28;20041;-94
2022/03/10 05:53:24;;;;;;;21.60;12.43;;;;;;;;;;4975528;28;20047;-95
2022/03/10 05:55:50;;;;;;;20.67;12.98;;;;;;;;;;4941861;28;20090;-92
2022/03/10 05:58:16;;;;;;;19.55;11.38;;;;;;;;;;4969244;28;20043;-95
2022/03/10 06:00:42;;;;;;;19.98;11.70;;;;;;;;;;4948675;28;20057;-94
2022/03/10 06:03:08;;;;;;;18.90;12.48;;;;;;;;;;4961190;28;20084;-93
2022/03/10 06:05:34;;;;;;;20.25;11.65;;;;;;;;;;4950843;28;20039;-94
2022/03/10 06:08:00;;;;;;;20.98;11.95;;;;;;;;;;4969262;28;20430;-93
2022/03/10 06:10:26;;;;;;;20.45;11.95;;;;;;;;;;4961565;28;20046;-94
2022/03/10 06:12:52;;;;;;;22.38;12.05;;;;;;;;;;4954105;28;20046;-94
2022/03/10 06:15:18;;;;;;;18.75;12.32;;;;;;;;;;4939132;28;20057;-93
2022/03/10 06:17:44;;;;;;;20.25;12.80;;;;;;;;;;4960729;28;20074;-93
2022/03/10 06:20:11;;;;;;;19.20;12.05;;;;;;;;;;4947530;29;20086;-94
2022/03/10 06:22:37;;;;;;;17.85;12.02;;;;;;;;;;4955009;28;20078;-94
2022/03/10 06:25:04;;;;;;;20.55;11.93;;;;;;;;;;4939019;29;20039;-93
2022/03/10 06:27:30;;;;;;;22.55;12.30;;;;;;;;;;4974887;28;20039;-93
2022/03/10 06:29:56;;;;;;;20.02;12.15;;;;;;;;;;4947678;28;20093;-94
2022/03/10 06:32:23;;;;;;;17.98;11.63;;;;;;;;;;4966333;28;20039;-94
2022/03/10 06:34:50;;;;;;;20.33;12.20;;;;;;;;;;4965057;28;20043;-92
2022/03/10 06:37:16;;;;;;;19.92;12.57;;;;;;;;;;4939224;29;20143;-93
2022/03/10 06:39:42;;;;;;;18.25;11.85;;;;;;;;;;4958010;28;20120;-93
2022/03/10 06:42:11;;;;;;;22.08;12.52;;;;;;;;;;4973470;28;22076;-92
2022/03/10 06:44:37;;;;;;;20.38;11.93;;;;;;;;;;4952207;28;20062;-93
2022/03/10 06:47:04;;;;;;;20.77;12.93;;;;;;;;;;4950696;29;20126;-94
2022/03/10 06:49:30;;;;;;;21.95;12.95;;;;;;;;;;4949297;28;20136;-94
2022/03/10 06:51:56;;;;;;;25.98;14.18;;;;;;;;;;4958719;28;20439;-95
2022/03/10 06:54:22;;;;;;;25.58;13.57;;;;;;;;;;4954466;28;20039;-94
2022/03/10 06:56:48;;;;;;;19.95;12.93;;;;;;;;;;4960377;28;20430;-95
2022/03/10 06:59:15;;;;;;;21.98;13.02;;;;;;;;;;4972607;28;20081;-94
2022/03/10 07:01:41;;;;;;;20.65;12.73;;;;;;;;;;4952013;28;20034;-96
2022/03/10 07:04:07;;;;;;;20.83;12.85;;;;;;;;;;4964635;28;20047;-93
2022/03/10 07:06:33;;;;;;;20.10;12.43;;;;;;;;;;4963923;28;20050;-94
2022/03/10 07:08:59;;;;;;;18.80;12.13;;;;;;;;;;4972044;28;20043;-93
2022/03/10 07:11:25;;;;;;;20.92;12.73;;;;;;;;;;4973390;28;20112;-94
2022/03/10 07:13:52;;;;;;;20.65;13.00;;;;;;;;;;4974167;28;20051;-93
2022/03/10 07:16:18;;;;;;;26.30;13.98;;;;;;;;;;4946637;28;20478;-94
2022/03/10 07:18:50;;;;;;;22.85;12.95;;;;;;;;;;4950689;28;20043;-94
2022/03/10 07:21:17;;;;;;;19.85;13.00;;;;;;;;;;4965184;28;20047;-93
2022/03/10 07:23:43;;;;;;;20.92;13.40;;;;;;;;;;4960512;28;20071;-94
2022/03/10 07:26:10;;;;;;;23.40;13.88;;;;;;;;;;4966964;28;20500;-94
2022/03/10 07:28:36;;;;;;;22.30;14.13;;;;;;;;;;4943158;28;20039;-93
2022/03/10 07:31:02;;;;;;;22.67;13.60;;;;;;;;;;4970557;28;20402;-95
2022/03/10 07:33:28;;;;;;;27.35;14.35;;;;;;;;;;4949451;28;20199;-95
2022/03/10 07:35:54;;;;;;;22.02;13.70;;;;;;;;;;4956958;28;20047;-95
2022/03/10 07:38:20;;;;;;;22.60;13.07;;;;;;;;;;4960423;28;20053;-94
2022/03/10 07:40:46;;;;;;;26.50;15.07;;;;;;;;;;4973471;28;20039;-93
2022/03/10 07:43:12;;;;;;;24.02;13.25;;;;;;;;;;4938600;28;20087;-93
2022/03/10 07:45:38;;;;;;;20.73;13.32;;;;;;;;;;4970752;28;20134;-93
2022/03/10 07:48:05;;;;;;;24.05;12.75;;;;;;;;;;4975413;28;20410;-94
2022/03/10 07:50:31;;;;;;;24.45;13.05;;;;;;;;;;4966984;28;20397;-93
2022/03/10 07:52:57;;;;;;;22.88;13.75;;;;;;;;;;4965207;28;20102;-95
2022/03/10 07:55:23;;;;;;;23.73;13.88;;;;;;;;;;4961288;28;20075;-94
2022/03/10 07:57:49;;;;;;;20.95;12.77;;;;;;;;;;4965781;28;20133;-93
2022/03/10 08:00:15;;;;;;;27.92;14.63;;;;;;;;;;4973027;28;20402;-93
2022/03/10 08:02:41;;;;;;;21.33;12.93;;;;;;;;;;4973084;28;20059;-92
2022/03/10 08:05:08;;;;;;;23.45;13.55;;;;;;;;;;4969154;28;20075;-93
2022/03/10 08:07:34;;;;;;;23.67;14.35;;;;;;;;;;4937701;28;20043;-95
2022/03/10 08:10:01;;;;;;;22.48;13.82;;;;;;;;;;4959226;28;20122;-93
2022/03/10 08:12:29;;;;;;;22.27;13.23;;;;;;;;;;4953784;28;20098;-92
2022/03/10 08:14:55;;;;;;;22.45;14.55;;;;;;;;;;4962490;28;20051;-95
2022/03/10 08:17:21;;;;;;;19.15;12.15;;;;;;;;;;4943597;28;20105;-94
2022/03/10 08:19:47;;;;;;;22.77;13.82;;;;;;;;;;4973153;28;20086;-93
2022/03/10 08:22:15;;;;;;;24.58;13.25;;;;;;;;;;4954064;28;20065;-91
2022/03/10 08:24:41;;;;;;;20.08;13.50;;;;;;;;;;4954620;29;20046;-94
2022/03/10 08:27:07;;;;;;;20.33;13.65;;;;;;;;;;4965705;28;20039;-94
2022/03/10 08:29:33;;;;;;;21.10;13.48;;;;;;;;;;4973130;28;20034;-94
2022/03/10 08:31:59;;;;;;;21.20;12.90;;;;;;;;;;4957204;28;20129;-94
2022/03/10 08:34:25;;;;;;;19.88;13.43;;;;;;;;;;4973255;28;20490;-93
2022/03/10 08:36:51;;;;;;;19.52;12.20;;;;;;;;;;4976325;28;20050;-93
2022/03/10 08:39:18;;;;;;;23.23;13.65;;;;;;;;;;4977078;28;20039;-94
2022/03/10 08:41:44;;;;;;;20.92;13.43;;;;;;;;;;4976180;28;20466;-92
2022/03/10 08:44:12;;;;;;;18.42;13.18;;;;;;;;;;4976028;28;20087;-94
2022/03/10 08:46:38;;;;;;;21.27;13.20;;;;;;;;;;4976139;28;20134;-92
2022/03/10 08:49:04;;;;;;;20.52;13.27;;;;;;;;;;4976387;28;20081;-93
2022/03/10 08:51:30;;;;;;;19.35;13.45;;;;;;;;;;4976189;28;20093;-93
2022/03/10 08:53:56;;;;;;;21.33;13.10;;;;;;;;;;4960060;28;20047;-93
2022/03/10 08:56:22;;;;;;;19.70;13.10;;;;;;;;;;4975767;28;20130;-92
2022/03/10 08:58:48;;;;;;;24.63;14.13;;;;;;;;;;4976045;28;20102;-93
2022/03/10 09:01:15;;;;;;;17.98;12.90;;;;;;;;;;4977505;28;20047;-92
2022/03/10 09:03:41;;;;;;;23.05;14.05;;;;;;;;;;4977757;28;20058;-93
2022/03/10 09:06:09;;;;;;;18.65;13.27;;;;;;;;;;4975957;28;20077;-93
2022/03/10 09:08:36;;;;;;;19.13;12.65;;;;;;;;;;4959841;28;20046;-94
2022/03/10 09:11:03;;;;;;;17.55;13.70;;;;;;;;;;4975813;28;20050;-92
2022/03/10 09:13:29;;;;;;;18.20;13.27;;;;;;;;;;4975662;28;20065;-94
2022/03/10 09:15:55;;;;;;;17.55;12.93;;;;;;;;;;4960111;28;20130;-94
2022/03/10 09:18:21;;;;;;;19.25;12.90;;;;;;;;;;4975699;28;20117;-94
2022/03/10 09:20:47;;;;;;;18.20;12.68;;;;;;;;;;4960001;28;20507;-92
2022/03/10 09:23:13;;;;;;;18.38;13.45;;;;;;;;;;4975822;28;20082;-93
2022/03/10 09:25:39;;;;;;;16.42;12.50;;;;;;;;;;4975633;28;20134;-92
2022/03/10 09:28:05;;;;;;;18.98;12.32;;;;;;;;;;4975130;28;20592;-93
2022/03/10 09:30:31;;;;;;;17.92;12.70;;;;;;;;;;4961222;28;20039;-92
2022/03/10 09:32:58;;;;;;;18.92;12.77;;;;;;;;;;4978502;28;20039;-94
2022/03/10 09:35:24;;;;;;;18.02;12.65;;;;;;;;;;4969029;28;20034;-91
2022/03/10 09:37:52;;;;;;;16.70;12.90;;;;;;;;;;4956983;28;20057;-92
2022/03/10 09:40:18;;;;;;;17.20;12.13;;;;;;;;;;4957865;28;20047;-89
2022/03/10 09:42:45;;;;;;;16.88;11.85;;;;;;;;;;4939487;29;20126;-90
2022/03/10 09:45:12;;;;;;;25.92;12.73;;;;;;;;;;4956278;29;20056;-91
2022/03/10 09:47:39;;;;;;;19.67;12.13;;;;;;;;;;4956000;28;20110;-93
2022/03/10 09:50:06;;;;;;;17.90;12.25;;;;;;;;;;4958730;28;20035;-90
2022/03/10 09:52:32;;;;;;;17.15;12.00;;;;;;;;;;4967075;28;20085;-91
2022/03/10 09:54:59;;;;;;;18.02;12.35;;;;;;;;;;4956362;29;20047;-90
2022/03/10 09:57:25;;;;;;;18.67;11.68;;;;;;;;;;4956383;29;20051;-93
2022/03/10 09:59:52;;;;;;;16.90;12.02;;;;;;;;;;4957164;28;20406;-90
2022/03/10 10:02:18;;;;;;;18.10;12.82;;;;;;;;;;4955941;29;20112;-92
2022/03/10 10:04:44;;;;;;;17.20;11.85;;;;;;;;;;4955722;29;20048;-89
2022/03/10 10:07:11;;;;;;;17.73;11.73;;;;;;;;;;4955631;29;20091;-90
2022/03/10 10:09:57;;;;;;;15.45;10.77;;;;;;;;;;4955496;29;20110;-90
2022/03/10 10:12:27;;;;;;;20.85;12.43;;;;;;;;;;4955338;29;20047;-90
2022/03/10 10:14:57;;;;;;;19.80;12.10;;;;;;;;;;4956760;28;20121;-89
2022/03/10 10:17:33;;;;;;;18.55;12.30;;;;;;;;;;4955418;29;20054;-93
2022/03/10 10:20:00;;;;;;;21.25;12.52;;;;;;;;;;4955075;29;20055;-92
2022/03/10 10:22:27;;;;;;;18.70;12.35;;;;;;;;;;4956299;28;20039;-93
2022/03/10 10:24:57;;;;;;;19.77;13.23;;;;;;;;;;4955165;29;20395;-92
2022/03/10 10:27:28;;;;;;;19.45;12.63;;;;;;;;;;4954801;29;20549;-92
2022/03/10 10:29:55;;;;;;;19.35;12.25;;;;;;;;;;4942434;29;20047;-92
2022/03/10 10:32:31;;;;;;;18.52;12.52;;;;;;;;;;4955023;29;20129;-91
2022/03/10 10:35:08;;;;;;;20.23;11.90;;;;;;;;;;4955033;29;20051;-91
2022/03/10 10:37:35;;;;;;;17.95;12.35;;;;;;;;;;4938792;29;20126;-91
2022/03/10 10:40:02;;;;;;;19.33;12.35;;;;;;;;;;4954864;29;20047;-91
2022/03/10 10:42:33;;;;;;;20.02;12.73;;;;;;;;;;4954523;29;20047;-92
2022/03/10 10:45:00;;;;;;;17.35;12.50;;;;;;;;;;4954803;29;20106;-92
2022/03/10 10:47:29;;;;;;;16.85;11.80;;;;;;;;;;4955162;29;20099;-92
2022/03/10 10:50:01;;;;;;;15.98;11.73;;;;;;;;;;4955614;29;20054;-93
2022/03/10 10:52:36;;;;;;;17.23;11.25;;;;;;;;;;4956755;28;20057;-91
2022/03/10 10:55:10;;;;;;;16.75;11.93;;;;;;;;;;4938129;29;20051;-91
2022/03/10 10:57:37;;;;;;;16.83;11.70;;;;;;;;;;4953920;29;20106;-92
2022/03/10 11:00:10;;;;;;;17.35;12.15;;;;;;;;;;4954493;28;20439;-91
2022/03/10 11:02:41;;;;;;;19.23;12.48;;;;;;;;;;4954291;29;20055;-91
2022/03/10 11:05:09;;;;;;;16.10;11.55;;;;;;;;;;4954657;29;20067;-92
2022/03/10 11:07:36;;;;;;;17.33;12.13;;;;;;;;;;4955085;28;20043;-91
2022/03/10 11:10:03;;;;;;;21.30;12.25;;;;;;;;;;4954176;29;20501;-90
2022/03/10 11:12:29;;;;;;;17.38;12.68;;;;;;;;;;4954116;29;20057;-91
2022/03/10 11:14:56;;;;;;;17.77;13.07;;;;;;;;;;4955315;28;20043;-92
2022/03/10 11:17:22;;;;;;;17.02;12.18;;;;;;;;;;4954151;29;20139;-91
2022/03/10 11:19:49;;;;;;;18.38;12.43;;;;;;;;;;4954299;29;20499;-90
2022/03/10 11:22:23;;;;;;;18.90;12.55;;;;;;;;;;4953778;29;20101;-91
2022/03/10 11:25:01;;;;;;;20.30;12.68;;;;;;;;;;4954156;29;20529;-91
2022/03/10 11:27:30;;;;;;;18.80;12.27;;;;;;;;;;4955047;28;20044;-91
2022/03/10 11:29:57;;;;;;;17.38;12.63;;;;;;;;;;4954304;29;20043;-92
2022/03/10 11:32:28;;;;;;;18.73;13.45;;;;;;;;;;4955476;29;20058;-91
2022/03/10 11:34:55;;;;;;;18.88;12.70;;;;;;;;;;4953981;29;20039;-90
2022/03/10 11:37:35;;;;;;;20.05;13.18;;;;;;;;;;4937688;29;20123;-91
2022/03/10 11:40:01;;;;;;;19.63;12.40;;;;;;;;;;4954111;29;20503;-94
2022/03/10 11:42:30;;;;;;;16.83;12.57;;;;;;;;;;4953840;29;20044;-90
2022/03/10 11:45:10;;;;;;;19.45;13.18;;;;;;;;;;4953758;29;20052;-91
2022/03/10 11:47:37;;;;;;;18.35;12.88;;;;;;;;;;4953472;29;20054;-92
2022/03/10 11:50:18;;;;;;;19.75;13.88;;;;;;;;;;4953949;29;20139;-91
2022/03/10 11:52:44;;;;;;;19.75;13.73;;;;;;;;;;4953939;29;20143;-91
2022/03/10 11:55:12;;;;;;;19.83;13.57;;;;;;;;;;4955101;28;20066;-94
2022/03/10 11:57:42;;;;;;;19.67;12.68;;;;;;;;;;4953379;29;20055;-91
2022/03/10 12:00:09;;;;;;;21.52;13.80;;;;;;;;;;4953820;29;20051;-90
2022/03/10 12:02:43;;;;;;;20.48;13.55;;;;;;;;;;4953434;29;20075;-91
2022/03/10 12:05:09;;;;;;;19.75;13.90;;;;;;;;;;4954059;29;20395;-92
2022/03/10 12:07:35;;;;;;;21.05;14.15;;;;;;;;;;4953290;29;20078;-90
2022/03/10 12:10:06;;;;;;;21.63;14.00;;;;;;;;;;4953496;28;20039;-90
2022/03/10 12:12:39;;;;;;;20.95;13.45;;;;;;;;;;4957097;29;20133;-90
2022/03/10 12:15:20;;;;;;;19.95;13.15;;;;;;;;;;4957327;29;20126;-91
2022/03/10 12:17:49;;;;;;;24.52;14.00;;;;;;;;;;4957109;29;20051;-91
2022/03/10 12:20:23;;;;;;;21.70;13.52;;;;;;;;;;4957690;29;20043;-91
2022/03/10 12:23:09;;;;;;;24.27;13.85;;;;;;;;;;4957302;29;20055;-93
2022/03/10 12:25:44;;;;;;;22.65;14.07;;;;;;;;;;4957424;29;20047;-92
2022/03/10 12:28:11;;;;;;;19.42;13.52;;;;;;;;;;4957091;29;20040;-91
2022/03/10 12:30:41;;;;;;;20.48;13.85;;;;;;;;;;4957412;29;20368;-92
2022/03/10 12:33:08;;;;;;;20.08;13.07;;;;;;;;;;4957366;29;20058;-90
2022/03/10 12:35:38;;;;;;;20.90;13.65;;;;;;;;;;4958320;28;20415;-92
2022/03/10 12:38:04;;;;;;;18.90;13.93;;;;;;;;;;4956855;29;20047;-91
2022/03/10 12:40:31;;;;;;;21.63;12.68;;;;;;;;;;4958331;28;20051;-92
2022/03/10 12:43:01;;;;;;;20.42;12.50;;;;;;;;;;4956596;29;20369;-90
2022/03/10 12:45:27;;;;;;;20.52;13.63;;;;;;;;;;4957088;29;20047;-92
2022/03/10 12:48:14;;;;;;;20.23;13.95;;;;;;;;;;4956867;29;20047;-92
2022/03/10 12:50:43;;;;;;;19.98;12.80;;;;;;;;;;4957970;28;20408;-92
2022/03/10 12:53:13;;;;;;;21.77;13.93;;;;;;;;;;4957028;29;20058;-90
2022/03/10 12:55:39;;;;;;;21.92;13.23;;;;;;;;;;4956851;29;20059;-91
2022/03/10 12:58:06;;;;;;;21.40;14.63;;;;;;;;;;4956441;29;20047;-89
2022/03/10 13:00:35;;;;;;;21.20;13.55;;;;;;;;;;4956352;29;20043;-91
2022/03/10 13:03:01;;;;;;;22.17;13.48;;;;;;;;;;4956315;29;20072;-91
2022/03/10 13:05:27;;;;;;;20.67;14.23;;;;;;;;;;4956281;29;20107;-91
2022/03/10 13:07:54;;;;;;;22.80;13.40;;;;;;;;;;4956308;29;20047;-91
2022/03/10 13:10:20;;;;;;;19.50;13.13;;;;;;;;;;4955922;29;20051;-91
2022/03/10 13:12:48;;;;;;;20.73;13.82;;;;;;;;;;4956083;29;20121;-90
2022/03/10 13:15:21;;;;;;;22.95;14.88;;;;;;;;;;4940065;29;20051;-92
2022/03/10 13:17:47;;;;;;;22.85;13.48;;;;;;;;;;4956503;29;20098;-92
2022/03/10 13:20:15;;;;;;;21.20;13.60;;;;;;;;;;4955969;29;20043;-91
2022/03/10 13:22:45;;;;;;;21.17;13.60;;;;;;;;;;4955800;28;20048;-91
2022/03/10 13:25:11;;;;;;;23.52;14.52;;;;;;;;;;4956064;29;20568;-92
2022/03/10 13:27:37;;;;;;;23.17;13.88;;;;;;;;;;4955406;28;20039;-91
2022/03/10 13:30:03;;;;;;;23.17;15.15;;;;;;;;;;4971505;28;20051;-92
2022/03/10 13:32:31;;;;;;;22.17;13.93;;;;;;;;;;4974913;28;20058;-93
2022/03/10 13:35:00;;;;;;;23.52;14.70;;;;;;;;;;4975156;28;20051;-92
2022/03/10 13:37:26;;;;;;;20.83;13.68;;;;;;;;;;4976073;28;20494;-91
2022/03/10 13:39:53;;;;;;;20.98;14.45;;;;;;;;;;4958425;28;20054;-92
2022/03/10 13:42:25;;;;;;;22.45;13.30;;;;;;;;;;4974660;28;20047;-92
2022/03/10 13:45:10;;;;;;;21.60;14.27;;;;;;;;;;4974559;28;20390;-91
2022/03/10 13:47:54;;;;;;;22.08;13.95;;;;;;;;;;4976337;28;20537;-92
2022/03/10 13:50:20;;;;;;;21.40;14.05;;;;;;;;;;4974592;28;20043;-90
2022/03/10 13:52:49;;;;;;;21.10;13.13;;;;;;;;;;4959068;28;20051;-90
2022/03/10 13:55:15;;;;;;;20.88;14.00;;;;;;;;;;4975017;28;20442;-89
2022/03/10 13:57:45;;;;;;;19.45;13.43;;;;;;;;;;4971724;28;20070;-91
2022/03/10 14:00:12;;;;;;;21.50;14.18;;;;;;;;;;4974452;28;20118;-91
2022/03/10 14:02:38;;;;;;;22.85;14.45;;;;;;;;;;4974195;28;20043;-91
2022/03/10 14:05:13;;;;;;;23.42;14.73;;;;;;;;;;4977266;28;20043;-91
2022/03/10 14:07:39;;;;;;;20.38;14.02;;;;;;;;;;4974786;28;20546;-93
2022/03/10 14:10:06;;;;;;;22.83;14.57;;;;;;;;;;4974616;28;20138;-91
2022/03/10 14:12:33;;;;;;;22.63;14.13;;;;;;;;;;4974768;28;20081;-93
2022/03/10 14:14:59;;;;;;;21.73;14.40;;;;;;;;;;4974863;28;20051;-90
2022/03/10 14:17:41;;;;;;;23.70;14.50;;;;;;;;;;4957847;28;20042;-92
2022/03/10 14:20:07;;;;;;;23.13;15.60;;;;;;;;;;4974812;28;20039;-92
2022/03/10 14:22:35;;;;;;;22.45;14.73;;;;;;;;;;4974527;28;20082;-93